Time;durP1;ratioP1;P1;durP2;ratioP2;P2;SDS_P1;SDS_P2;PMS_P1;PMS_P2;Temp;Humidity;BMP_temperature;BMP_pressure;BME280_temperature;BME280_humidity;BME280_pressure;Samples;Min_cycle;Max_cycle;Signal;HPM_P1;HPM_P2
2022/03/09 00:00:10;;;;;;;5.00;2.40;;;;;;;;;;4972926;28;20043;-92
2022/03/09 00:02:36;;;;;;;6.03;2.50;;;;;;;;;;4972630;28;20135;-91
2022/03/09 00:05:03;;;;;;;6.03;2.67;;;;;;;;;;4973151;28;20051;-92
2022/03/09 00:07:29;;;;;;;6.60;2.78;;;;;;;;;;4972437;28;20039;-91
2022/03/09 00:09:55;;;;;;;6.38;2.92;;;;;;;;;;4972648;28;20047;-92
2022/03/09 00:12:21;;;;;;;9.15;3.53;;;;;;;;;;4972738;28;20051;-92
2022/03/09 00:14:48;;;;;;;5.57;2.70;;;;;;;;;;4972988;28;20053;-91
2022/03/09 00:17:14;;;;;;;11.77;2.80;;;;;;;;;;4972486;28;20414;-92
2022/03/09 00:19:40;;;;;;;6.32;2.58;;;;;;;;;;4956676;28;20046;-93
2022/03/09 00:22:06;;;;;;;4.93;2.70;;;;;;;;;;4972573;28;20097;-91
2022/03/09 00:24:32;;;;;;;7.43;3.20;;;;;;;;;;4975703;28;20430;-93
2022/03/09 00:26:58;;;;;;;5.95;2.72;;;;;;;;;;4960243;28;20039;-91
2022/03/09 00:29:24;;;;;;;9.82;3.35;;;;;;;;;;4960187;28;20043;-92
2022/03/09 00:31:50;;;;;;;7.25;3.03;;;;;;;;;;4976073;28;20120;-90
2022/03/09 00:34:16;;;;;;;6.25;2.75;;;;;;;;;;4976352;28;20053;-90
2022/03/09 00:36:42;;;;;;;6.57;2.92;;;;;;;;;;4975672;28;20053;-91
2022/03/09 00:39:09;;;;;;;7.40;3.20;;;;;;;;;;4976255;28;20050;-92
2022/03/09 00:41:35;;;;;;;7.90;3.13;;;;;;;;;;4975632;28;20051;-92
2022/03/09 00:44:01;;;;;;;7.00;3.22;;;;;;;;;;4975813;28;20458;-91
2022/03/09 00:46:27;;;;;;;7.30;3.63;;;;;;;;;;4959499;28;20046;-92
2022/03/09 00:48:53;;;;;;;6.00;2.80;;;;;;;;;;4975704;28;20401;-91
2022/03/09 00:51:19;;;;;;;7.10;2.97;;;;;;;;;;4975803;28;20050;-92
2022/03/09 00:53:45;;;;;;;7.13;3.30;;;;;;;;;;4959388;28;20054;-92
2022/03/09 00:56:11;;;;;;;8.05;3.17;;;;;;;;;;4975417;28;20133;-92
2022/03/09 00:58:37;;;;;;;8.32;4.00;;;;;;;;;;4975711;28;20051;-93
2022/03/09 01:01:03;;;;;;;7.55;3.47;;;;;;;;;;4975533;28;20137;-93
2022/03/09 01:03:28;;;;;;;6.78;3.42;;;;;;;;;;4975514;28;20043;-92
2022/03/09 01:05:55;;;;;;;6.70;3.40;;;;;;;;;;4975317;28;20039;-93
2022/03/09 01:08:21;;;;;;;6.53;3.58;;;;;;;;;;4975216;28;20049;-93
2022/03/09 01:10:47;;;;;;;7.53;2.92;;;;;;;;;;4959498;28;20038;-92
2022/03/09 01:13:13;;;;;;;7.20;3.40;;;;;;;;;;4975253;28;20039;-92
2022/03/09 01:15:39;;;;;;;6.82;3.78;;;;;;;;;;4959612;28;20554;-91
2022/03/09 01:18:05;;;;;;;6.35;3.53;;;;;;;;;;4975327;28;20061;-92
2022/03/09 01:20:31;;;;;;;7.45;3.58;;;;;;;;;;4975357;28;20049;-92
2022/03/09 01:22:57;;;;;;;7.28;3.53;;;;;;;;;;4974945;28;20098;-92
2022/03/09 01:25:23;;;;;;;8.68;3.85;;;;;;;;;;4975099;28;20037;-92
2022/03/09 01:27:49;;;;;;;9.38;3.55;;;;;;;;;;4974964;28;20039;-92
2022/03/09 01:30:15;;;;;;;8.93;3.80;;;;;;;;;;4975095;28;20039;-91
2022/03/09 01:32:40;;;;;;;6.88;3.60;;;;;;;;;;4977422;28;20050;-90
2022/03/09 01:35:07;;;;;;;6.65;3.30;;;;;;;;;;4974164;28;20132;-91
2022/03/09 01:37:33;;;;;;;8.30;3.75;;;;;;;;;;4974649;28;20043;-92
2022/03/09 01:39:59;;;;;;;9.52;3.80;;;;;;;;;;4974870;28;20469;-93
2022/03/09 01:42:25;;;;;;;8.25;3.65;;;;;;;;;;4974383;28;20059;-91
2022/03/09 01:44:51;;;;;;;6.53;3.40;;;;;;;;;;4958556;28;20398;-91
2022/03/09 01:47:17;;;;;;;7.65;3.80;;;;;;;;;;4958238;28;20129;-91
2022/03/09 01:49:43;;;;;;;6.88;3.70;;;;;;;;;;4974798;28;20051;-91
2022/03/09 01:52:09;;;;;;;7.47;3.88;;;;;;;;;;4975883;28;20050;-93
2022/03/09 01:54:35;;;;;;;8.20;3.92;;;;;;;;;;4958511;28;20042;-93
2022/03/09 01:57:02;;;;;;;7.80;4.18;;;;;;;;;;4958539;28;20043;-93
2022/03/09 01:59:28;;;;;;;7.93;3.95;;;;;;;;;;4974401;28;20485;-92
2022/03/09 02:01:54;;;;;;;7.50;4.20;;;;;;;;;;4974731;28;20050;-91
2022/03/09 02:04:21;;;;;;;10.70;4.45;;;;;;;;;;4974148;28;20406;-92
2022/03/09 02:06:47;;;;;;;8.13;3.92;;;;;;;;;;4974078;28;20454;-92
2022/03/09 02:11:58;;;;;;;7.38;3.88;;;;;;;;;;4974455;28;20054;-93
2022/03/09 02:14:30;;;;;;;7.57;4.22;;;;;;;;;;4975394;28;20046;-91
2022/03/09 02:16:57;;;;;;;12.63;5.25;;;;;;;;;;4973867;28;20039;-92
2022/03/09 02:19:23;;;;;;;7.82;4.63;;;;;;;;;;4958209;28;20069;-92
2022/03/09 02:21:51;;;;;;;11.00;4.60;;;;;;;;;;4958194;28;20096;-92
2022/03/09 02:24:17;;;;;;;7.50;4.45;;;;;;;;;;4958201;28;20114;-92
2022/03/09 02:26:43;;;;;;;9.63;4.20;;;;;;;;;;4974040;28;20038;-91
2022/03/09 02:29:09;;;;;;;8.20;4.60;;;;;;;;;;4974065;28;20039;-92
2022/03/09 02:31:35;;;;;;;10.25;4.72;;;;;;;;;;4973916;28;20047;-92
2022/03/09 02:34:01;;;;;;;10.13;4.45;;;;;;;;;;4973852;28;20065;-92
2022/03/09 02:36:28;;;;;;;9.75;4.90;;;;;;;;;;4974037;28;20047;-93
2022/03/09 02:38:54;;;;;;;9.55;4.82;;;;;;;;;;4957539;28;20047;-91
2022/03/09 02:41:19;;;;;;;9.38;4.57;;;;;;;;;;4957886;28;20050;-91
2022/03/09 02:43:45;;;;;;;8.57;4.60;;;;;;;;;;4973620;28;20059;-93
2022/03/09 02:46:11;;;;;;;11.73;4.72;;;;;;;;;;4973371;28;20051;-92
2022/03/09 02:48:37;;;;;;;8.73;4.85;;;;;;;;;;4973442;28;20505;-91
2022/03/09 02:51:03;;;;;;;10.05;4.30;;;;;;;;;;4957282;28;20483;-93
2022/03/09 02:53:29;;;;;;;9.48;4.80;;;;;;;;;;4973583;28;20137;-92
2022/03/09 02:55:55;;;;;;;8.57;4.68;;;;;;;;;;4957435;28;20047;-92
2022/03/09 02:58:21;;;;;;;10.02;4.53;;;;;;;;;;4957348;28;20137;-92
2022/03/09 03:00:47;;;;;;;10.70;5.03;;;;;;;;;;4973531;28;20414;-92
2022/03/09 03:03:13;;;;;;;8.90;4.95;;;;;;;;;;4973402;28;20046;-93
2022/03/09 03:05:39;;;;;;;10.75;4.53;;;;;;;;;;4974007;28;20035;-91
2022/03/09 03:08:05;;;;;;;8.63;4.65;;;;;;;;;;4957427;28;20049;-92
2022/03/09 03:10:31;;;;;;;9.50;4.97;;;;;;;;;;4957211;28;20089;-93
2022/03/09 03:12:57;;;;;;;9.60;5.45;;;;;;;;;;4973336;28;20056;-92
2022/03/09 03:15:23;;;;;;;9.73;4.75;;;;;;;;;;4973510;28;20047;-92
2022/03/09 03:17:49;;;;;;;9.63;4.75;;;;;;;;;;4973375;28;20047;-92
2022/03/09 03:20:15;;;;;;;8.48;5.07;;;;;;;;;;4973718;28;20054;-92
2022/03/09 03:22:41;;;;;;;8.75;4.50;;;;;;;;;;4973218;28;20054;-90
2022/03/09 03:25:07;;;;;;;10.95;5.18;;;;;;;;;;4973095;28;20403;-93
2022/03/09 03:27:33;;;;;;;10.10;5.28;;;;;;;;;;4973690;28;20035;-92
2022/03/09 03:29:59;;;;;;;12.02;4.95;;;;;;;;;;4956850;28;20041;-92
2022/03/09 03:32:25;;;;;;;10.90;5.53;;;;;;;;;;4973799;28;20054;-91
2022/03/09 03:34:51;;;;;;;10.02;5.45;;;;;;;;;;4972815;28;20050;-90
2022/03/09 03:37:17;;;;;;;7.95;4.63;;;;;;;;;;4973251;28;20054;-91
2022/03/09 03:39:43;;;;;;;9.60;5.20;;;;;;;;;;4972985;28;20042;-91
2022/03/09 03:42:09;;;;;;;10.20;5.63;;;;;;;;;;4956764;28;20494;-92
2022/03/09 03:44:35;;;;;;;8.48;4.90;;;;;;;;;;4972773;28;20057;-93
2022/03/09 03:47:01;;;;;;;10.43;4.95;;;;;;;;;;4972999;28;20043;-91
2022/03/09 03:49:26;;;;;;;11.30;5.85;;;;;;;;;;4972749;28;20466;-92
2022/03/09 03:51:52;;;;;;;12.38;5.70;;;;;;;;;;4973238;28;20051;-92
2022/03/09 03:54:19;;;;;;;9.00;4.90;;;;;;;;;;4972994;28;20102;-91
2022/03/09 03:56:46;;;;;;;10.98;5.30;;;;;;;;;;4956701;28;20089;-92
2022/03/09 03:59:12;;;;;;;10.02;5.43;;;;;;;;;;4975598;28;20050;-93
2022/03/09 04:01:38;;;;;;;13.48;5.70;;;;;;;;;;4976868;28;20055;-91
2022/03/09 04:04:04;;;;;;;13.15;5.50;;;;;;;;;;4960649;28;20039;-92
2022/03/09 04:06:30;;;;;;;10.15;5.60;;;;;;;;;;4976840;28;20116;-93
2022/03/09 04:08:56;;;;;;;8.90;5.53;;;;;;;;;;4976852;28;20046;-93
2022/03/09 04:11:22;;;;;;;9.45;5.00;;;;;;;;;;4960321;28;20490;-92
2022/03/09 04:13:48;;;;;;;12.10;6.10;;;;;;;;;;4976794;28;20046;-91
2022/03/09 04:16:14;;;;;;;8.48;5.38;;;;;;;;;;4976286;28;20053;-91
2022/03/09 04:18:40;;;;;;;10.13;5.35;;;;;;;;;;4960144;28;20402;-93
2022/03/09 04:21:06;;;;;;;9.50;5.75;;;;;;;;;;4960502;28;20043;-93
2022/03/09 04:23:32;;;;;;;10.57;5.22;;;;;;;;;;4960506;28;20456;-93
2022/03/09 04:25:58;;;;;;;12.60;6.28;;;;;;;;;;4975975;28;20049;-91
2022/03/09 04:28:24;;;;;;;10.55;5.80;;;;;;;;;;4976383;28;20100;-93
2022/03/09 04:30:50;;;;;;;12.02;5.82;;;;;;;;;;4976159;28;20461;-95
2022/03/09 04:33:16;;;;;;;9.68;5.70;;;;;;;;;;4960551;28;20046;-94
2022/03/09 04:35:42;;;;;;;11.55;5.75;;;;;;;;;;4959996;28;20217;-92
2022/03/09 04:38:08;;;;;;;11.80;5.80;;;;;;;;;;4976601;28;20482;-91
2022/03/09 04:40:34;;;;;;;10.90;5.68;;;;;;;;;;4959772;28;20525;-92
2022/03/09 04:43:00;;;;;;;10.45;5.65;;;;;;;;;;4975657;28;20066;-93
2022/03/09 04:45:26;;;;;;;10.35;5.45;;;;;;;;;;4975847;28;20047;-92
2022/03/09 04:47:52;;;;;;;10.57;5.70;;;;;;;;;;4976183;28;20375;-93
2022/03/09 04:50:18;;;;;;;11.90;5.13;;;;;;;;;;4975759;28;20046;-94
2022/03/09 04:52:44;;;;;;;10.20;5.70;;;;;;;;;;4975862;28;20462;-92
2022/03/09 04:55:10;;;;;;;9.98;5.78;;;;;;;;;;4975570;28;20042;-92
2022/03/09 04:57:36;;;;;;;10.25;5.85;;;;;;;;;;4975829;28;20550;-92
2022/03/09 05:00:03;;;;;;;11.05;5.70;;;;;;;;;;4959508;28;20129;-94
2022/03/09 05:02:29;;;;;;;10.45;5.40;;;;;;;;;;4975887;28;20071;-94
2022/03/09 05:04:55;;;;;;;12.50;6.07;;;;;;;;;;4975721;28;20039;-94
2022/03/09 05:07:21;;;;;;;10.32;5.68;;;;;;;;;;4975832;28;20043;-93
2022/03/09 05:09:47;;;;;;;9.98;5.50;;;;;;;;;;4959467;28;20077;-93
2022/03/09 05:12:13;;;;;;;10.50;5.53;;;;;;;;;;4976979;28;20042;-93
2022/03/09 05:14:39;;;;;;;11.43;5.72;;;;;;;;;;4975678;28;20050;-94
2022/03/09 05:17:05;;;;;;;11.02;5.60;;;;;;;;;;4959807;28;20483;-91
2022/03/09 05:19:31;;;;;;;10.02;5.32;;;;;;;;;;4975548;28;20050;-94
2022/03/09 05:21:57;;;;;;;11.77;6.60;;;;;;;;;;4975288;28;20042;-93
2022/03/09 05:24:23;;;;;;;11.15;5.97;;;;;;;;;;4979162;28;20035;-91
2022/03/09 05:26:49;;;;;;;12.88;5.65;;;;;;;;;;4975450;28;20039;-92
2022/03/09 05:29:15;;;;;;;10.75;5.93;;;;;;;;;;4975855;28;20039;-93
2022/03/09 05:31:41;;;;;;;16.23;6.85;;;;;;;;;;4959030;28;20054;-92
2022/03/09 05:34:08;;;;;;;12.35;6.30;;;;;;;;;;4975373;28;20045;-93
2022/03/09 05:36:34;;;;;;;13.77;5.82;;;;;;;;;;4974876;28;20045;-92
2022/03/09 05:39:00;;;;;;;10.90;6.60;;;;;;;;;;4975242;28;20046;-91
2022/03/09 05:41:26;;;;;;;11.85;6.63;;;;;;;;;;4958868;28;20537;-93
2022/03/09 05:43:52;;;;;;;12.57;6.00;;;;;;;;;;4959552;28;20059;-95
2022/03/09 05:46:18;;;;;;;13.43;6.22;;;;;;;;;;4958863;28;20077;-92
2022/03/09 05:48:44;;;;;;;14.35;6.18;;;;;;;;;;4975207;28;20042;-93
2022/03/09 05:51:10;;;;;;;13.05;6.68;;;;;;;;;;4974665;28;20524;-92
2022/03/09 05:53:37;;;;;;;9.77;5.82;;;;;;;;;;4974846;28;20034;-93
2022/03/09 05:56:03;;;;;;;14.85;6.70;;;;;;;;;;4958778;28;20573;-91
2022/03/09 05:58:29;;;;;;;11.10;6.80;;;;;;;;;;4975322;28;20121;-92
2022/03/09 06:00:55;;;;;;;15.40;6.40;;;;;;;;;;4958668;28;20530;-93
2022/03/09 06:03:21;;;;;;;11.10;5.93;;;;;;;;;;4974924;28;20039;-93
2022/03/09 06:05:47;;;;;;;10.52;6.53;;;;;;;;;;4974704;28;20047;-94
2022/03/09 06:08:14;;;;;;;13.27;7.72;;;;;;;;;;4975035;28;20070;-94
2022/03/09 06:10:40;;;;;;;12.95;6.68;;;;;;;;;;4974736;28;20050;-93
2022/03/09 06:13:06;;;;;;;15.35;7.10;;;;;;;;;;4975132;28;20391;-92
2022/03/09 06:15:32;;;;;;;13.88;7.38;;;;;;;;;;4974496;28;20053;-95
2022/03/09 06:17:58;;;;;;;12.27;6.72;;;;;;;;;;4975464;28;20065;-94
2022/03/09 06:20:25;;;;;;;11.93;6.70;;;;;;;;;;4958783;28;20042;-94
2022/03/09 06:22:51;;;;;;;13.18;6.80;;;;;;;;;;4974443;28;20050;-96
2022/03/09 06:25:17;;;;;;;13.43;7.50;;;;;;;;;;4974458;28;20190;-94
2022/03/09 06:27:45;;;;;;;12.88;6.93;;;;;;;;;;4975203;28;20035;-92
2022/03/09 06:30:11;;;;;;;13.27;6.88;;;;;;;;;;4974500;28;20082;-93
2022/03/09 06:32:38;;;;;;;11.45;6.60;;;;;;;;;;4974495;28;20494;-93
2022/03/09 06:35:04;;;;;;;13.05;7.25;;;;;;;;;;4974130;28;20462;-93
2022/03/09 06:37:30;;;;;;;12.35;6.72;;;;;;;;;;4974209;28;20053;-94
2022/03/09 06:39:57;;;;;;;14.07;7.80;;;;;;;;;;4958258;28;20323;-94
2022/03/09 06:42:23;;;;;;;11.60;6.57;;;;;;;;;;4973765;28;20458;-93
2022/03/09 06:44:49;;;;;;;13.85;6.93;;;;;;;;;;4974098;28;20047;-93
2022/03/09 06:47:16;;;;;;;12.98;6.63;;;;;;;;;;4974018;28;20038;-93
2022/03/09 06:49:42;;;;;;;18.33;7.35;;;;;;;;;;4958139;28;20043;-94
2022/03/09 06:52:08;;;;;;;13.32;6.78;;;;;;;;;;4973915;28;20049;-91
2022/03/09 06:54:34;;;;;;;17.92;7.03;;;;;;;;;;4973990;28;20047;-91
2022/03/09 06:57:00;;;;;;;15.45;7.05;;;;;;;;;;4957966;28;20386;-94
2022/03/09 06:59:26;;;;;;;14.05;7.32;;;;;;;;;;4973960;28;20050;-93
2022/03/09 07:01:52;;;;;;;12.20;6.93;;;;;;;;;;4973749;28;20054;-92
2022/03/09 07:04:18;;;;;;;14.70;6.90;;;;;;;;;;4974305;28;20038;-93
2022/03/09 07:06:44;;;;;;;13.93;7.97;;;;;;;;;;4973416;28;20050;-92
2022/03/09 07:09:10;;;;;;;15.80;7.18;;;;;;;;;;4973989;28;20391;-93
2022/03/09 07:11:36;;;;;;;12.32;6.82;;;;;;;;;;4957774;28;20042;-93
2022/03/09 07:14:02;;;;;;;13.48;6.90;;;;;;;;;;4974343;28;20482;-93
2022/03/09 07:16:28;;;;;;;12.25;6.90;;;;;;;;;;4973343;28;20053;-92
2022/03/09 07:18:54;;;;;;;12.85;7.28;;;;;;;;;;4974209;28;20051;-92
2022/03/09 07:21:20;;;;;;;13.52;7.22;;;;;;;;;;4968829;28;20458;-93
2022/03/09 07:23:46;;;;;;;12.55;6.97;;;;;;;;;;4958973;28;20451;-92
2022/03/09 07:26:12;;;;;;;11.75;7.03;;;;;;;;;;4949271;28;20051;-94
2022/03/09 07:28:38;;;;;;;11.48;7.00;;;;;;;;;;4960614;28;20407;-92
2022/03/09 07:31:04;;;;;;;12.98;6.80;;;;;;;;;;4964976;28;20133;-94
2022/03/09 07:33:30;;;;;;;12.18;7.78;;;;;;;;;;4964997;28;20039;-92
2022/03/09 07:35:56;;;;;;;11.68;6.72;;;;;;;;;;4966057;28;20043;-93
2022/03/09 07:38:23;;;;;;;10.63;6.78;;;;;;;;;;4967359;28;20042;-94
2022/03/09 07:40:49;;;;;;;15.45;7.00;;;;;;;;;;4949513;28;20047;-93
2022/03/09 07:43:15;;;;;;;14.02;7.55;;;;;;;;;;4967863;28;20066;-93
2022/03/09 07:45:41;;;;;;;12.65;7.38;;;;;;;;;;4971619;28;20062;-95
2022/03/09 07:48:08;;;;;;;12.32;6.88;;;;;;;;;;4960404;28;20042;-95
2022/03/09 07:50:34;;;;;;;13.07;7.75;;;;;;;;;;4969059;28;20133;-93
2022/03/09 07:53:00;;;;;;;15.30;7.80;;;;;;;;;;4962665;28;20050;-92
2022/03/09 07:55:26;;;;;;;13.10;7.50;;;;;;;;;;4963776;28;20101;-93
2022/03/09 07:57:52;;;;;;;11.95;6.68;;;;;;;;;;4949202;28;20047;-94
2022/03/09 08:00:18;;;;;;;17.70;8.82;;;;;;;;;;4965743;28;20050;-93
2022/03/09 08:02:44;;;;;;;13.73;7.93;;;;;;;;;;4967292;28;20097;-91
2022/03/09 08:05:10;;;;;;;13.85;7.60;;;;;;;;;;4967460;28;20097;-93
2022/03/09 08:07:36;;;;;;;12.90;7.55;;;;;;;;;;4965864;28;20043;-93
2022/03/09 08:10:02;;;;;;;18.52;7.47;;;;;;;;;;4962093;28;20105;-94
2022/03/09 08:12:28;;;;;;;12.07;7.75;;;;;;;;;;4965890;28;20383;-94
2022/03/09 08:14:54;;;;;;;12.02;7.40;;;;;;;;;;4967071;28;20073;-93
2022/03/09 08:17:21;;;;;;;12.95;7.55;;;;;;;;;;4968660;28;20515;-95
2022/03/09 08:19:47;;;;;;;18.90;7.68;;;;;;;;;;4963249;28;20061;-93
2022/03/09 08:22:13;;;;;;;17.77;8.18;;;;;;;;;;4946126;28;20050;-92
2022/03/09 08:24:39;;;;;;;12.18;7.20;;;;;;;;;;4951516;28;20047;-94
2022/03/09 08:27:05;;;;;;;17.42;7.18;;;;;;;;;;4946307;29;20070;-93
2022/03/09 08:29:31;;;;;;;12.18;7.50;;;;;;;;;;4957522;29;20122;-95
2022/03/09 08:31:58;;;;;;;17.33;7.97;;;;;;;;;;4959433;28;20047;-93
2022/03/09 08:34:24;;;;;;;12.52;7.45;;;;;;;;;;4976647;28;20047;-92
2022/03/09 08:36:50;;;;;;;11.75;7.13;;;;;;;;;;4976256;28;20050;-91
2022/03/09 08:39:16;;;;;;;13.32;7.82;;;;;;;;;;4976308;28;20043;-92
2022/03/09 08:41:44;;;;;;;11.02;6.78;;;;;;;;;;4975668;28;20121;-92
2022/03/09 08:44:10;;;;;;;13.10;6.63;;;;;;;;;;4975733;28;20066;-93
2022/03/09 08:46:36;;;;;;;11.75;6.72;;;;;;;;;;4975880;28;20043;-92
2022/03/09 08:49:03;;;;;;;12.45;6.80;;;;;;;;;;4976031;28;20409;-91
2022/03/09 08:51:29;;;;;;;12.23;7.10;;;;;;;;;;4975618;28;20043;-92
2022/03/09 08:53:55;;;;;;;11.77;6.85;;;;;;;;;;4979766;28;20047;-93
2022/03/09 08:56:21;;;;;;;13.68;7.18;;;;;;;;;;4976538;28;20459;-92
2022/03/09 08:58:47;;;;;;;10.85;6.82;;;;;;;;;;4975571;28;20520;-92
2022/03/09 09:01:13;;;;;;;10.35;7.18;;;;;;;;;;4975700;28;20047;-92
2022/03/09 09:03:40;;;;;;;12.73;7.03;;;;;;;;;;4959922;28;20429;-93
2022/03/09 09:06:06;;;;;;;10.57;6.80;;;;;;;;;;4975905;28;20095;-92
2022/03/09 09:08:32;;;;;;;12.57;7.35;;;;;;;;;;4975744;28;20042;-93
2022/03/09 09:10:58;;;;;;;11.00;7.30;;;;;;;;;;4959305;28;20405;-93
2022/03/09 09:13:24;;;;;;;14.73;7.50;;;;;;;;;;4975672;28;20038;-91
2022/03/09 09:15:50;;;;;;;12.40;7.85;;;;;;;;;;4977759;28;20060;-93
2022/03/09 09:18:16;;;;;;;11.27;7.40;;;;;;;;;;4975302;28;20050;-92
2022/03/09 09:20:42;;;;;;;11.63;6.90;;;;;;;;;;4975250;28;20050;-93
2022/03/09 09:23:08;;;;;;;10.10;7.25;;;;;;;;;;4974775;28;20054;-91
2022/03/09 09:25:36;;;;;;;10.13;6.88;;;;;;;;;;4974822;28;20086;-90
2022/03/09 09:28:02;;;;;;;10.10;7.00;;;;;;;;;;4975526;28;20031;-93
2022/03/09 09:30:30;;;;;;;10.60;6.88;;;;;;;;;;4976106;28;20043;-92
2022/03/09 09:32:56;;;;;;;10.50;6.80;;;;;;;;;;4958433;28;20521;-91
2022/03/09 09:35:23;;;;;;;12.27;7.32;;;;;;;;;;4976112;28;20058;-91
2022/03/09 09:37:50;;;;;;;11.02;6.70;;;;;;;;;;4976109;28;20046;-91
2022/03/09 09:40:16;;;;;;;11.15;6.85;;;;;;;;;;4974629;28;20085;-91
2022/03/09 09:42:43;;;;;;;11.90;7.32;;;;;;;;;;4958293;28;20066;-91
2022/03/09 09:45:09;;;;;;;10.32;6.45;;;;;;;;;;4974997;28;20043;-93
2022/03/09 09:47:36;;;;;;;14.52;7.05;;;;;;;;;;4974551;28;20059;-91
2022/03/09 09:50:05;;;;;;;10.73;6.45;;;;;;;;;;4958492;28;20060;-91
2022/03/09 09:52:33;;;;;;;11.07;6.57;;;;;;;;;;4974574;28;20046;-91
2022/03/09 09:55:00;;;;;;;11.32;7.00;;;;;;;;;;4957795;28;20057;-92
2022/03/09 09:57:27;;;;;;;11.82;7.13;;;;;;;;;;4975090;28;20049;-91
2022/03/09 09:59:54;;;;;;;11.15;6.45;;;;;;;;;;4978742;28;20078;-95
2022/03/09 10:02:20;;;;;;;12.45;7.28;;;;;;;;;;4978310;28;20118;-94
2022/03/09 10:04:47;;;;;;;11.07;7.35;;;;;;;;;;4975602;28;20125;-92
2022/03/09 10:07:13;;;;;;;11.50;6.95;;;;;;;;;;4958239;28;20049;-92
2022/03/09 10:09:43;;;;;;;12.63;7.40;;;;;;;;;;4974730;28;20034;-93
2022/03/09 10:12:09;;;;;;;12.80;7.03;;;;;;;;;;4973908;28;20053;-91
2022/03/09 10:14:51;;;;;;;11.82;6.72;;;;;;;;;;4975192;28;20494;-91
2022/03/09 10:17:18;;;;;;;10.95;6.80;;;;;;;;;;4974120;28;20129;-92
2022/03/09 10:19:51;;;;;;;13.57;6.80;;;;;;;;;;4974376;28;20100;-92
2022/03/09 10:22:23;;;;;;;9.77;6.68;;;;;;;;;;4974046;28;20077;-92
2022/03/09 10:24:50;;;;;;;13.05;6.47;;;;;;;;;;4974284;28;20046;-92
2022/03/09 10:27:34;;;;;;;13.73;6.63;;;;;;;;;;4973997;28;20121;-92
2022/03/09 10:30:01;;;;;;;11.68;7.45;;;;;;;;;;4973994;28;20059;-92
2022/03/09 10:32:46;;;;;;;11.23;6.78;;;;;;;;;;4957855;28;20490;-92
2022/03/09 10:35:14;;;;;;;13.55;7.45;;;;;;;;;;4974694;28;20117;-91
2022/03/09 10:37:41;;;;;;;9.98;6.90;;;;;;;;;;4973933;28;20058;-93
2022/03/09 10:40:14;;;;;;;13.32;7.30;;;;;;;;;;4973816;28;20051;-92
2022/03/09 10:42:40;;;;;;;10.57;6.75;;;;;;;;;;4973455;28;20117;-91
2022/03/09 10:45:08;;;;;;;10.85;6.72;;;;;;;;;;4973891;28;20117;-92
2022/03/09 10:47:55;;;;;;;11.00;6.57;;;;;;;;;;4973777;28;20050;-93
2022/03/09 10:50:28;;;;;;;11.55;7.05;;;;;;;;;;4973690;28;20097;-91
2022/03/09 10:52:55;;;;;;;11.07;7.13;;;;;;;;;;4957645;28;20058;-92
2022/03/09 10:55:37;;;;;;;11.57;6.50;;;;;;;;;;4957710;28;20065;-92
2022/03/09 10:58:08;;;;;;;14.20;7.15;;;;;;;;;;4973463;28;20050;-92
2022/03/09 11:00:34;;;;;;;12.00;7.47;;;;;;;;;;4973638;28;20134;-91
2022/03/09 11:03:05;;;;;;;12.48;7.30;;;;;;;;;;4974830;28;20097;-93
2022/03/09 11:05:31;;;;;;;11.45;7.10;;;;;;;;;;4973626;28;20054;-94
2022/03/09 11:07:57;;;;;;;12.18;6.60;;;;;;;;;;4973726;28;20043;-92
2022/03/09 11:10:25;;;;;;;9.90;6.65;;;;;;;;;;4973478;28;20067;-92
2022/03/09 11:12:51;;;;;;;13.57;7.35;;;;;;;;;;4957539;28;20445;-92
2022/03/09 11:15:20;;;;;;;13.25;7.95;;;;;;;;;;4973485;28;20516;-93
2022/03/09 11:17:48;;;;;;;10.90;7.45;;;;;;;;;;4973403;28;20129;-93
2022/03/09 11:20:15;;;;;;;13.02;7.47;;;;;;;;;;4973952;28;20134;-92
2022/03/09 11:22:41;;;;;;;11.93;7.32;;;;;;;;;;4973424;28;20050;-92
2022/03/09 11:25:08;;;;;;;11.30;7.50;;;;;;;;;;4972816;28;20097;-93
2022/03/09 11:27:34;;;;;;;12.65;7.85;;;;;;;;;;4973498;28;20427;-93
2022/03/09 11:30:20;;;;;;;12.07;7.00;;;;;;;;;;4973100;28;20049;-92
2022/03/09 11:32:46;;;;;;;15.20;7.07;;;;;;;;;;4973408;28;20043;-90
2022/03/09 11:35:31;;;;;;;12.60;7.70;;;;;;;;;;4973014;28;20073;-91
2022/03/09 11:37:57;;;;;;;11.40;7.28;;;;;;;;;;4973093;28;20050;-91
2022/03/09 11:40:23;;;;;;;12.30;7.60;;;;;;;;;;4973243;28;20057;-91
2022/03/09 11:42:49;;;;;;;12.10;7.25;;;;;;;;;;4972856;28;20050;-92
2022/03/09 11:45:15;;;;;;;12.25;6.95;;;;;;;;;;4956612;28;20052;-91
2022/03/09 11:47:57;;;;;;;14.32;7.28;;;;;;;;;;4974342;28;20035;-92
2022/03/09 11:50:23;;;;;;;11.88;7.35;;;;;;;;;;4972565;28;20064;-92
2022/03/09 11:52:58;;;;;;;13.85;7.38;;;;;;;;;;4973389;28;20486;-91
2022/03/09 11:55:24;;;;;;;10.80;7.40;;;;;;;;;;4973044;28;20065;-92
2022/03/09 11:57:50;;;;;;;10.55;7.00;;;;;;;;;;4973116;28;20126;-91
2022/03/09 12:00:19;;;;;;;12.68;7.97;;;;;;;;;;4972467;28;20107;-93
2022/03/09 12:02:47;;;;;;;13.32;7.75;;;;;;;;;;4972781;28;20057;-91
2022/03/09 12:05:22;;;;;;;14.90;7.80;;;;;;;;;;4972836;28;20458;-94
2022/03/09 12:07:49;;;;;;;13.23;7.47;;;;;;;;;;4972985;28;20113;-92
2022/03/09 12:10:17;;;;;;;10.45;7.45;;;;;;;;;;4956319;28;20075;-93
2022/03/09 12:13:01;;;;;;;11.48;7.32;;;;;;;;;;4972813;28;20392;-92
2022/03/09 12:15:27;;;;;;;11.02;6.88;;;;;;;;;;4972549;28;20062;-93
2022/03/09 12:17:53;;;;;;;11.48;7.65;;;;;;;;;;4972596;28;20047;-91
2022/03/09 12:20:32;;;;;;;11.27;6.90;;;;;;;;;;4959380;28;20097;-91
2022/03/09 12:22:59;;;;;;;12.02;7.40;;;;;;;;;;4976253;28;20482;-91
2022/03/09 12:25:43;;;;;;;12.00;7.22;;;;;;;;;;4976063;28;20498;-91
2022/03/09 12:28:29;;;;;;;11.30;7.10;;;;;;;;;;4976299;28;20034;-91
2022/03/09 12:30:57;;;;;;;12.95;7.30;;;;;;;;;;4959949;28;20137;-92
2022/03/09 12:33:31;;;;;;;13.07;7.75;;;;;;;;;;4960067;28;20077;-93
2022/03/09 12:36:06;;;;;;;10.85;7.10;;;;;;;;;;4970942;28;20054;-93
2022/03/09 12:38:35;;;;;;;14.63;7.20;;;;;;;;;;4967948;28;20043;-93
2022/03/09 12:41:01;;;;;;;12.15;7.55;;;;;;;;;;4957123;29;20039;-92
2022/03/09 12:43:30;;;;;;;11.50;7.18;;;;;;;;;;4956364;29;20139;-91
2022/03/09 12:45:57;;;;;;;11.27;7.30;;;;;;;;;;4956376;29;20051;-92
2022/03/09 12:48:23;;;;;;;10.32;7.28;;;;;;;;;;4956778;29;20043;-91
2022/03/09 12:50:49;;;;;;;13.30;7.35;;;;;;;;;;4956374;29;20114;-92
2022/03/09 12:53:21;;;;;;;13.40;7.75;;;;;;;;;;4948409;28;20050;-91
2022/03/09 12:55:48;;;;;;;9.77;6.40;;;;;;;;;;4975376;28;20422;-92
2022/03/09 12:58:21;;;;;;;13.90;7.60;;;;;;;;;;4975980;28;20047;-93
2022/03/09 13:00:47;;;;;;;11.80;7.18;;;;;;;;;;4975719;28;20110;-93
2022/03/09 13:03:14;;;;;;;11.30;7.07;;;;;;;;;;4975614;28;20196;-92
2022/03/09 13:05:40;;;;;;;11.48;7.25;;;;;;;;;;4975643;28;20394;-93
2022/03/09 13:08:07;;;;;;;12.02;7.03;;;;;;;;;;4975969;28;20041;-91
2022/03/09 13:10:40;;;;;;;11.20;7.00;;;;;;;;;;4976587;28;20038;-92
2022/03/09 13:13:06;;;;;;;13.57;7.97;;;;;;;;;;4976765;28;20437;-92
2022/03/09 13:15:35;;;;;;;13.13;7.03;;;;;;;;;;4975494;28;20398;-93
2022/03/09 13:18:01;;;;;;;9.68;6.63;;;;;;;;;;4975405;28;20465;-91
2022/03/09 13:20:27;;;;;;;12.77;7.00;;;;;;;;;;4975270;28;20050;-93
2022/03/09 13:22:53;;;;;;;10.52;6.72;;;;;;;;;;4975375;28;20074;-93
2022/03/09 13:25:19;;;;;;;11.00;6.97;;;;;;;;;;4975001;28;20075;-93
2022/03/09 13:27:45;;;;;;;13.15;7.55;;;;;;;;;;4975040;28;20126;-94
2022/03/09 13:30:18;;;;;;;11.50;6.32;;;;;;;;;;4973954;28;20041;-92
2022/03/09 13:32:44;;;;;;;11.48;6.60;;;;;;;;;;4959220;28;20093;-92
2022/03/09 13:35:16;;;;;;;12.82;7.53;;;;;;;;;;4975293;28;20054;-92
2022/03/09 13:37:42;;;;;;;9.73;6.68;;;;;;;;;;4974972;28;20434;-92
2022/03/09 13:40:09;;;;;;;11.38;6.88;;;;;;;;;;4974710;28;20054;-92
2022/03/09 13:42:40;;;;;;;12.32;6.82;;;;;;;;;;4974883;28;20121;-91
2022/03/09 13:45:08;;;;;;;10.32;6.85;;;;;;;;;;4974954;28;20078;-91
2022/03/09 13:47:48;;;;;;;9.77;7.13;;;;;;;;;;4958842;28;20043;-90
2022/03/09 13:50:22;;;;;;;11.15;7.18;;;;;;;;;;4974671;28;20185;-92
2022/03/09 13:52:48;;;;;;;12.52;7.47;;;;;;;;;;4974550;28;20146;-91
2022/03/09 13:55:27;;;;;;;12.65;7.43;;;;;;;;;;4958695;28;20066;-92
2022/03/09 13:58:05;;;;;;;11.68;7.35;;;;;;;;;;4976019;28;20043;-93
2022/03/09 14:00:35;;;;;;;9.50;6.90;;;;;;;;;;4974395;28;20129;-91
2022/03/09 14:03:11;;;;;;;12.60;7.28;;;;;;;;;;4975375;28;20055;-93
2022/03/09 14:05:38;;;;;;;10.38;6.88;;;;;;;;;;4979816;28;20129;-92
2022/03/09 14:08:04;;;;;;;11.38;7.40;;;;;;;;;;4976851;28;20050;-91
2022/03/09 14:10:34;;;;;;;11.50;7.00;;;;;;;;;;4958948;28;20034;-91
2022/03/09 14:13:07;;;;;;;11.10;6.90;;;;;;;;;;4975879;28;20049;-92
2022/03/09 14:15:33;;;;;;;12.30;7.50;;;;;;;;;;4974383;28;20053;-92
2022/03/09 14:18:00;;;;;;;10.35;6.60;;;;;;;;;;4974850;28;20039;-93
2022/03/09 14:20:27;;;;;;;12.10;7.18;;;;;;;;;;4958323;28;20074;-92
2022/03/09 14:22:53;;;;;;;10.43;7.70;;;;;;;;;;4975783;28;20043;-93
2022/03/09 14:25:19;;;;;;;11.02;7.30;;;;;;;;;;4974599;28;20050;-92
2022/03/09 14:27:45;;;;;;;10.73;7.28;;;;;;;;;;4958400;28;20047;-92
2022/03/09 14:30:13;;;;;;;11.45;7.50;;;;;;;;;;4974110;28;20038;-92
2022/03/09 14:32:39;;;;;;;13.10;7.40;;;;;;;;;;4974342;28;20051;-93
2022/03/09 14:35:11;;;;;;;15.20;8.48;;;;;;;;;;4973778;28;20132;-91